Oakwood, Ohio
Current Conditions -  °F | °C
As of 12:53 AM on Monday 26 Jan 2015 (Local Time) from KDFI Reporting Station
Light Snow Light Snow  
Wind Chill: -14°   Ceiling: 3800
Heat Index: -7°   Visibility: 5mi
Dew Point: -13°   Wind: 12mph
Humidity: 65%   Direction: 40°NE
Pressure: 29.93"   Gusts: NA
Location:  41.1°N, 84.38°W
Report Text: KDFI 260553Z AUTO 04010KT 5SM -SN OVC038 M07/M13 A2993 RMK AO2 SLP145 P0000 60000 T10721128 11067 21072 50003
Loading
Personal Weather Stations






























Interactive Weather Map New forecast layout! Learn more

10-Day Weather Forecast

Advertisements
Track Severe Weather on mobile